sensor_id;sensor_type;location;lat;lon;timestamp;temperature;humidity
64833;HTU21D;51290;45.060;38.948;2023-08-20T00:01:30;27.43;31.36
64833;HTU21D;51290;45.060;38.948;2023-08-20T00:03:56;27.38;31.44
64833;HTU21D;51290;45.060;38.948;2023-08-20T00:06:23;27.29;31.57
64833;HTU21D;51290;45.060;38.948;2023-08-20T00:08:49;27.23;31.66
64833;HTU21D;51290;45.060;38.948;2023-08-20T00:11:16;27.13;31.72
64833;HTU21D;51290;45.060;38.948;2023-08-20T00:13:42;27.10;31.90
64833;HTU21D;51290;45.060;38.948;2023-08-20T00:16:09;27.08;31.99
64833;HTU21D;51290;45.060;38.948;2023-08-20T00:18:35;27.05;31.95
64833;HTU21D;51290;45.060;38.948;2023-08-20T00:21:02;27.00;32.06
64833;HTU21D;51290;45.060;38.948;2023-08-20T00:23:28;26.93;32.14
64833;HTU21D;51290;45.060;38.948;2023-08-20T00:25:54;26.86;32.23
64833;HTU21D;51290;45.060;38.948;2023-08-20T00:28:21;26.79;32.35
64833;HTU21D;51290;45.060;38.948;2023-08-20T00:30:47;26.73;32.44
64833;HTU21D;51290;45.060;38.948;2023-08-20T00:33:15;26.71;32.64
64833;HTU21D;51290;45.060;38.948;2023-08-20T00:35:41;26.69;32.64
64833;HTU21D;51290;45.060;38.948;2023-08-20T00:38:08;26.69;32.77
64833;HTU21D;51290;45.060;38.948;2023-08-20T00:40:34;26.75;32.76
64833;HTU21D;51290;45.060;38.948;2023-08-20T00:43:00;26.76;32.74
64833;HTU21D;51290;45.060;38.948;2023-08-20T00:45:27;26.73;32.71
64833;HTU21D;51290;45.060;38.948;2023-08-20T00:47:53;26.66;32.77
64833;HTU21D;51290;45.060;38.948;2023-08-20T00:50:19;26.62;32.96
64833;HTU21D;51290;45.060;38.948;2023-08-20T00:52:46;26.62;32.99
64833;HTU21D;51290;45.060;38.948;2023-08-20T00:55:12;26.62;33.01
64833;HTU21D;51290;45.060;38.948;2023-08-20T00:57:39;26.55;32.99
64833;HTU21D;51290;45.060;38.948;2023-08-20T01:00:07;26.48;33.09
64833;HTU21D;51290;45.060;38.948;2023-08-20T01:02:38;26.41;33.18
64833;HTU21D;51290;45.060;38.948;2023-08-20T01:05:07;26.36;33.25
64833;HTU21D;51290;45.060;38.948;2023-08-20T01:08:02;26.30;33.44
64833;HTU21D;51290;45.060;38.948;2023-08-20T01:10:41;26.35;33.42
64833;HTU21D;51290;45.060;38.948;2023-08-20T01:13:09;26.31;33.39
64833;HTU21D;51290;45.060;38.948;2023-08-20T01:15:35;26.21;33.49
64833;HTU21D;51290;45.060;38.948;2023-08-20T01:18:07;26.11;33.65
64833;HTU21D;51290;45.060;38.948;2023-08-20T01:20:40;26.03;33.80
64833;HTU21D;51290;45.060;38.948;2023-08-20T01:26:07;25.87;33.99
64833;HTU21D;51290;45.060;38.948;2023-08-20T01:28:34;25.80;34.18
64833;HTU21D;51290;45.060;38.948;2023-08-20T01:31:03;25.80;34.21
64833;HTU21D;51290;45.060;38.948;2023-08-20T01:33:30;25.71;34.22
64833;HTU21D;51290;45.060;38.948;2023-08-20T01:35:57;25.62;34.34
64833;HTU21D;51290;45.060;38.948;2023-08-20T01:38:23;25.54;34.51
64833;HTU21D;51290;45.060;38.948;2023-08-20T01:40:49;25.50;34.67
64833;HTU21D;51290;45.060;38.948;2023-08-20T01:43:16;25.48;34.76
64833;HTU21D;51290;45.060;38.948;2023-08-20T01:45:42;25.45;34.79
64833;HTU21D;51290;45.060;38.948;2023-08-20T01:48:08;25.46;34.92
64833;HTU21D;51290;45.060;38.948;2023-08-20T01:50:35;25.49;35.02
64833;HTU21D;51290;45.060;38.948;2023-08-20T01:53:02;25.53;34.92
64833;HTU21D;51290;45.060;38.948;2023-08-20T01:55:30;25.53;34.96
64833;HTU21D;51290;45.060;38.948;2023-08-20T01:57:56;25.53;35.01
64833;HTU21D;51290;45.060;38.948;2023-08-20T02:00:22;25.51;35.03
64833;HTU21D;51290;45.060;38.948;2023-08-20T02:02:49;25.56;35.09
64833;HTU21D;51290;45.060;38.948;2023-08-20T02:05:15;25.61;35.08
64833;HTU21D;51290;45.060;38.948;2023-08-20T02:07:41;25.69;35.11
64833;HTU21D;51290;45.060;38.948;2023-08-20T02:10:07;25.77;35.00
64833;HTU21D;51290;45.060;38.948;2023-08-20T02:12:34;25.88;35.06
64833;HTU21D;51290;45.060;38.948;2023-08-20T02:15:00;25.98;34.91
64833;HTU21D;51290;45.060;38.948;2023-08-20T02:17:26;26.05;34.93
64833;HTU21D;51290;45.060;38.948;2023-08-20T02:19:52;26.23;34.95
64833;HTU21D;51290;45.060;38.948;2023-08-20T02:22:18;26.42;34.73
64833;HTU21D;51290;45.060;38.948;2023-08-20T02:24:46;26.51;34.44
64833;HTU21D;51290;45.060;38.948;2023-08-20T02:27:15;26.57;34.31
64833;HTU21D;51290;45.060;38.948;2023-08-20T02:29:43;26.65;34.22
64833;HTU21D;51290;45.060;38.948;2023-08-20T02:32:14;26.76;34.13
64833;HTU21D;51290;45.060;38.948;2023-08-20T02:34:55;26.85;33.92
64833;HTU21D;51290;45.060;38.948;2023-08-20T02:37:25;26.89;33.97
64833;HTU21D;51290;45.060;38.948;2023-08-20T02:39:50;26.91;34.11
64833;HTU21D;51290;45.060;38.948;2023-08-20T02:42:16;26.90;34.11
64833;HTU21D;51290;45.060;38.948;2023-08-20T02:44:44;26.91;34.09
64833;HTU21D;51290;45.060;38.948;2023-08-20T02:47:12;26.87;34.05
64833;HTU21D;51290;45.060;38.948;2023-08-20T02:49:38;26.89;34.08
64833;HTU21D;51290;45.060;38.948;2023-08-20T02:52:04;26.86;34.06
64833;HTU21D;51290;45.060;38.948;2023-08-20T02:54:30;26.89;34.15
64833;HTU21D;51290;45.060;38.948;2023-08-20T02:56:58;26.94;34.04
64833;HTU21D;51290;45.060;38.948;2023-08-20T02:59:24;27.00;33.83
64833;HTU21D;51290;45.060;38.948;2023-08-20T03:01:50;26.96;33.66
64833;HTU21D;51290;45.060;38.948;2023-08-20T03:04:16;26.91;33.67
64833;HTU21D;51290;45.060;38.948;2023-08-20T03:06:42;26.78;33.60
64833;HTU21D;51290;45.060;38.948;2023-08-20T03:09:09;26.62;33.77
64833;HTU21D;51290;45.060;38.948;2023-08-20T03:11:35;26.45;33.89
64833;HTU21D;51290;45.060;38.948;2023-08-20T03:14:01;26.35;34.17
64833;HTU21D;51290;45.060;38.948;2023-08-20T03:16:27;26.27;34.28
64833;HTU21D;51290;45.060;38.948;2023-08-20T03:18:53;26.26;34.44
64833;HTU21D;51290;45.060;38.948;2023-08-20T03:21:20;26.25;34.39
64833;HTU21D;51290;45.060;38.948;2023-08-20T03:23:46;26.27;34.50
64833;HTU21D;51290;45.060;38.948;2023-08-20T03:26:12;26.33;34.44
64833;HTU21D;51290;45.060;38.948;2023-08-20T03:28:38;26.49;34.37
64833;HTU21D;51290;45.060;38.948;2023-08-20T03:31:04;26.64;34.06
64833;HTU21D;51290;45.060;38.948;2023-08-20T03:33:35;26.78;33.92
64833;HTU21D;51290;45.060;38.948;2023-08-20T03:36:01;26.99;33.63
64833;HTU21D;51290;45.060;38.948;2023-08-20T03:38:27;27.41;33.38
64833;HTU21D;51290;45.060;38.948;2023-08-20T03:40:55;28.12;32.42
64833;HTU21D;51290;45.060;38.948;2023-08-20T03:43:21;28.83;31.41
64833;HTU21D;51290;45.060;38.948;2023-08-20T03:45:50;29.44;30.42
64833;HTU21D;51290;45.060;38.948;2023-08-20T03:48:19;29.88;29.71
64833;HTU21D;51290;45.060;38.948;2023-08-20T03:50:46;30.15;29.22
64833;HTU21D;51290;45.060;38.948;2023-08-20T03:53:12;30.51;28.92
64833;HTU21D;51290;45.060;38.948;2023-08-20T03:55:38;30.69;28.60
64833;HTU21D;51290;45.060;38.948;2023-08-20T03:58:04;30.65;28.66
64833;HTU21D;51290;45.060;38.948;2023-08-20T04:00:30;30.30;29.07
64833;HTU21D;51290;45.060;38.948;2023-08-20T04:02:56;29.78;29.92
64833;HTU21D;51290;45.060;38.948;2023-08-20T04:05:22;29.32;30.59
64833;HTU21D;51290;45.060;38.948;2023-08-20T04:07:49;28.94;31.17
64833;HTU21D;51290;45.060;38.948;2023-08-20T04:10:15;28.68;31.62
64833;HTU21D;51290;45.060;38.948;2023-08-20T04:12:44;28.43;32.01
64833;HTU21D;51290;45.060;38.948;2023-08-20T04:15:10;28.32;32.41
64833;HTU21D;51290;45.060;38.948;2023-08-20T04:17:40;28.23;32.54
64833;HTU21D;51290;45.060;38.948;2023-08-20T04:20:06;28.24;32.80
64833;HTU21D;51290;45.060;38.948;2023-08-20T04:22:34;28.38;32.85
64833;HTU21D;51290;45.060;38.948;2023-08-20T04:25:09;28.48;32.64
64833;HTU21D;51290;45.060;38.948;2023-08-20T04:27:35;28.62;32.69
64833;HTU21D;51290;45.060;38.948;2023-08-20T04:30:02;28.72;32.51
64833;HTU21D;51290;45.060;38.948;2023-08-20T04:32:28;28.71;32.53
64833;HTU21D;51290;45.060;38.948;2023-08-20T04:34:54;28.75;32.54
64833;HTU21D;51290;45.060;38.948;2023-08-20T04:37:22;28.69;32.47
64833;HTU21D;51290;45.060;38.948;2023-08-20T04:39:48;28.60;32.63
64833;HTU21D;51290;45.060;38.948;2023-08-20T04:42:14;28.52;32.79
64833;HTU21D;51290;45.060;38.948;2023-08-20T04:44:40;28.50;32.96
64833;HTU21D;51290;45.060;38.948;2023-08-20T04:47:11;28.59;33.03
64833;HTU21D;51290;45.060;38.948;2023-08-20T04:49:38;28.67;32.96
64833;HTU21D;51290;45.060;38.948;2023-08-20T04:52:05;28.68;32.86
64833;HTU21D;51290;45.060;38.948;2023-08-20T04:54:32;28.62;32.98
64833;HTU21D;51290;45.060;38.948;2023-08-20T04:56:58;28.59;33.17
64833;HTU21D;51290;45.060;38.948;2023-08-20T04:59:24;28.59;33.41
64833;HTU21D;51290;45.060;38.948;2023-08-20T05:01:50;28.65;33.39
64833;HTU21D;51290;45.060;38.948;2023-08-20T05:04:18;28.67;33.33
64833;HTU21D;51290;45.060;38.948;2023-08-20T05:06:44;28.59;33.26
64833;HTU21D;51290;45.060;38.948;2023-08-20T05:09:10;28.49;33.25
64833;HTU21D;51290;45.060;38.948;2023-08-20T05:11:37;28.42;33.41
64833;HTU21D;51290;45.060;38.948;2023-08-20T05:14:03;28.37;33.67
64833;HTU21D;51290;45.060;38.948;2023-08-20T05:16:29;28.37;33.75
64833;HTU21D;51290;45.060;38.948;2023-08-20T05:18:56;28.35;33.81
64833;HTU21D;51290;45.060;38.948;2023-08-20T05:21:22;28.35;33.88
64833;HTU21D;51290;45.060;38.948;2023-08-20T05:23:50;28.31;33.92
64833;HTU21D;51290;45.060;38.948;2023-08-20T05:26:16;28.27;33.98
64833;HTU21D;51290;45.060;38.948;2023-08-20T05:28:42;28.28;34.08
64833;HTU21D;51290;45.060;38.948;2023-08-20T05:31:09;28.32;34.11
64833;HTU21D;51290;45.060;38.948;2023-08-20T05:33:38;28.38;34.18
64833;HTU21D;51290;45.060;38.948;2023-08-20T05:36:04;28.45;34.11
64833;HTU21D;51290;45.060;38.948;2023-08-20T05:38:31;28.54;34.11
64833;HTU21D;51290;45.060;38.948;2023-08-20T05:40:57;28.59;34.14
64833;HTU21D;51290;45.060;38.948;2023-08-20T05:43:23;28.69;34.15
64833;HTU21D;51290;45.060;38.948;2023-08-20T05:45:49;28.79;34.06
64833;HTU21D;51290;45.060;38.948;2023-08-20T05:48:20;28.89;33.92
64833;HTU21D;51290;45.060;38.948;2023-08-20T05:50:46;28.99;33.86
64833;HTU21D;51290;45.060;38.948;2023-08-20T05:53:12;29.07;33.81
64833;HTU21D;51290;45.060;38.948;2023-08-20T05:55:38;29.16;33.70
64833;HTU21D;51290;45.060;38.948;2023-08-20T05:58:07;29.20;33.70
64833;HTU21D;51290;45.060;38.948;2023-08-20T06:00:33;29.27;33.70
64833;HTU21D;51290;45.060;38.948;2023-08-20T06:03:01;29.36;33.63
64833;HTU21D;51290;45.060;38.948;2023-08-20T06:05:27;29.45;33.47
64833;HTU21D;51290;45.060;38.948;2023-08-20T06:07:53;29.53;33.17
64833;HTU21D;51290;45.060;38.948;2023-08-20T06:10:19;29.62;33.09
64833;HTU21D;51290;45.060;38.948;2023-08-20T06:12:45;29.72;32.96
64833;HTU21D;51290;45.060;38.948;2023-08-20T06:15:11;29.82;32.78
64833;HTU21D;51290;45.060;38.948;2023-08-20T06:17:37;29.91;32.50
64833;HTU21D;51290;45.060;38.948;2023-08-20T06:20:04;29.98;32.52
64833;HTU21D;51290;45.060;38.948;2023-08-20T06:22:34;30.09;32.34
64833;HTU21D;51290;45.060;38.948;2023-08-20T06:25:18;30.19;32.33
64833;HTU21D;51290;45.060;38.948;2023-08-20T06:27:44;30.31;32.18
64833;HTU21D;51290;45.060;38.948;2023-08-20T06:30:10;30.40;32.00
64833;HTU21D;51290;45.060;38.948;2023-08-20T06:32:36;30.50;31.73
64833;HTU21D;51290;45.060;38.948;2023-08-20T06:35:02;30.56;31.51
64833;HTU21D;51290;45.060;38.948;2023-08-20T06:37:29;30.62;31.33
64833;HTU21D;51290;45.060;38.948;2023-08-20T06:39:56;30.67;31.22
64833;HTU21D;51290;45.060;38.948;2023-08-20T06:42:25;30.76;31.12
64833;HTU21D;51290;45.060;38.948;2023-08-20T06:44:51;30.95;31.05
64833;HTU21D;51290;45.060;38.948;2023-08-20T06:47:17;31.12;30.82
64833;HTU21D;51290;45.060;38.948;2023-08-20T06:49:43;31.26;30.63
64833;HTU21D;51290;45.060;38.948;2023-08-20T06:52:09;31.42;30.40
64833;HTU21D;51290;45.060;38.948;2023-08-20T06:54:35;31.57;30.25
64833;HTU21D;51290;45.060;38.948;2023-08-20T06:57:01;31.70;30.13
64833;HTU21D;51290;45.060;38.948;2023-08-20T06:59:28;31.82;30.02
64833;HTU21D;51290;45.060;38.948;2023-08-20T07:01:54;31.96;29.77
64833;HTU21D;51290;45.060;38.948;2023-08-20T07:04:20;32.12;29.29
64833;HTU21D;51290;45.060;38.948;2023-08-20T07:06:46;32.23;29.14
64833;HTU21D;51290;45.060;38.948;2023-08-20T07:09:13;32.33;28.83
64833;HTU21D;51290;45.060;38.948;2023-08-20T07:11:39;32.42;28.72
64833;HTU21D;51290;45.060;38.948;2023-08-20T07:14:05;32.48;28.42
64833;HTU21D;51290;45.060;38.948;2023-08-20T07:16:31;32.58;28.37
64833;HTU21D;51290;45.060;38.948;2023-08-20T07:18:57;32.66;27.86
64833;HTU21D;51290;45.060;38.948;2023-08-20T07:21:23;32.70;27.69
64833;HTU21D;51290;45.060;38.948;2023-08-20T07:23:49;32.73;27.70
64833;HTU21D;51290;45.060;38.948;2023-08-20T07:26:15;32.76;27.62
64833;HTU21D;51290;45.060;38.948;2023-08-20T07:28:41;32.83;27.17
64833;HTU21D;51290;45.060;38.948;2023-08-20T07:31:23;32.84;26.97
64833;HTU21D;51290;45.060;38.948;2023-08-20T07:33:50;32.87;26.83
64833;HTU21D;51290;45.060;38.948;2023-08-20T07:36:23;32.92;26.59
64833;HTU21D;51290;45.060;38.948;2023-08-20T07:38:51;32.99;26.62
64833;HTU21D;51290;45.060;38.948;2023-08-20T07:41:17;33.04;26.65
64833;HTU21D;51290;45.060;38.948;2023-08-20T07:43:45;33.13;26.67
64833;HTU21D;51290;45.060;38.948;2023-08-20T07:46:12;33.22;26.39
64833;HTU21D;51290;45.060;38.948;2023-08-20T07:48:38;33.31;26.17
64833;HTU21D;51290;45.060;38.948;2023-08-20T07:51:04;33.36;25.80
64833;HTU21D;51290;45.060;38.948;2023-08-20T07:53:31;33.38;25.62
64833;HTU21D;51290;45.060;38.948;2023-08-20T07:55:58;33.40;25.37
64833;HTU21D;51290;45.060;38.948;2023-08-20T07:58:24;33.43;25.41
64833;HTU21D;51290;45.060;38.948;2023-08-20T08:01:14;33.43;25.18
64833;HTU21D;51290;45.060;38.948;2023-08-20T08:03:40;33.45;25.09
64833;HTU21D;51290;45.060;38.948;2023-08-20T08:06:06;33.50;24.83
64833;HTU21D;51290;45.060;38.948;2023-08-20T08:08:32;33.56;24.68
64833;HTU21D;51290;45.060;38.948;2023-08-20T08:10:58;33.58;24.70
64833;HTU21D;51290;45.060;38.948;2023-08-20T08:13:24;33.62;24.75
64833;HTU21D;51290;45.060;38.948;2023-08-20T08:15:50;33.68;24.57
64833;HTU21D;51290;45.060;38.948;2023-08-20T08:18:18;33.74;24.50
64833;HTU21D;51290;45.060;38.948;2023-08-20T08:20:44;33.79;24.38
64833;HTU21D;51290;45.060;38.948;2023-08-20T08:23:10;33.82;24.17
64833;HTU21D;51290;45.060;38.948;2023-08-20T08:25:37;33.83;24.01
64833;HTU21D;51290;45.060;38.948;2023-08-20T08:28:04;33.83;23.91
64833;HTU21D;51290;45.060;38.948;2023-08-20T08:30:31;33.86;24.09
64833;HTU21D;51290;45.060;38.948;2023-08-20T08:32:58;33.91;24.04
64833;HTU21D;51290;45.060;38.948;2023-08-20T08:35:24;33.97;23.94
64833;HTU21D;51290;45.060;38.948;2023-08-20T08:37:50;34.01;23.64
64833;HTU21D;51290;45.060;38.948;2023-08-20T08:40:16;33.99;23.54
64833;HTU21D;51290;45.060;38.948;2023-08-20T08:42:43;33.97;23.63
64833;HTU21D;51290;45.060;38.948;2023-08-20T08:45:21;33.99;23.56
64833;HTU21D;51290;45.060;38.948;2023-08-20T08:47:48;34.05;23.67
64833;HTU21D;51290;45.060;38.948;2023-08-20T08:50:15;34.12;23.53
64833;HTU21D;51290;45.060;38.948;2023-08-20T08:52:42;34.16;23.34
64833;HTU21D;51290;45.060;38.948;2023-08-20T08:55:11;34.20;23.28
64833;HTU21D;51290;45.060;38.948;2023-08-20T08:57:37;34.27;23.35
64833;HTU21D;51290;45.060;38.948;2023-08-20T09:00:06;34.33;22.74
64833;HTU21D;51290;45.060;38.948;2023-08-20T09:02:33;34.34;22.57
64833;HTU21D;51290;45.060;38.948;2023-08-20T09:05:05;34.34;22.39
64833;HTU21D;51290;45.060;38.948;2023-08-20T09:07:32;34.37;22.36
64833;HTU21D;51290;45.060;38.948;2023-08-20T09:09:58;34.37;22.29
64833;HTU21D;51290;45.060;38.948;2023-08-20T09:12:28;34.36;22.02
64833;HTU21D;51290;45.060;38.948;2023-08-20T09:15:10;34.35;22.19
64833;HTU21D;51290;45.060;38.948;2023-08-20T09:17:36;34.32;22.08
64833;HTU21D;51290;45.060;38.948;2023-08-20T09:20:03;34.33;22.01
64833;HTU21D;51290;45.060;38.948;2023-08-20T09:22:29;34.36;22.10
64833;HTU21D;51290;45.060;38.948;2023-08-20T09:24:56;34.40;22.11
64833;HTU21D;51290;45.060;38.948;2023-08-20T09:27:23;34.38;22.19
64833;HTU21D;51290;45.060;38.948;2023-08-20T09:29:53;34.41;22.07
64833;HTU21D;51290;45.060;38.948;2023-08-20T09:32:26;34.48;22.00
64833;HTU21D;51290;45.060;38.948;2023-08-20T09:53:48;34.80;20.88
64833;HTU21D;51290;45.060;38.948;2023-08-20T09:56:35;34.91;21.02
64833;HTU21D;51290;45.060;38.948;2023-08-20T09:59:04;35.00;21.02
64833;HTU21D;51290;45.060;38.948;2023-08-20T10:01:30;35.05;20.92
64833;HTU21D;51290;45.060;38.948;2023-08-20T10:03:56;35.05;20.80
64833;HTU21D;51290;45.060;38.948;2023-08-20T10:06:25;35.05;20.75
64833;HTU21D;51290;45.060;38.948;2023-08-20T10:08:53;35.03;20.88
64833;HTU21D;51290;45.060;38.948;2023-08-20T10:11:19;35.06;20.83
64833;HTU21D;51290;45.060;38.948;2023-08-20T10:13:45;35.09;20.79
64833;HTU21D;51290;45.060;38.948;2023-08-20T10:16:17;35.15;20.92
64833;HTU21D;51290;45.060;38.948;2023-08-20T10:18:46;35.20;20.65
64833;HTU21D;51290;45.060;38.948;2023-08-20T10:21:13;35.19;20.74
64833;HTU21D;51290;45.060;38.948;2023-08-20T10:23:42;35.18;20.85
64833;HTU21D;51290;45.060;38.948;2023-08-20T10:26:13;35.20;20.89
64833;HTU21D;51290;45.060;38.948;2023-08-20T10:28:40;35.20;20.66
64833;HTU21D;51290;45.060;38.948;2023-08-20T10:31:15;35.23;20.41
64833;HTU21D;51290;45.060;38.948;2023-08-20T10:36:18;35.34;20.17
64833;HTU21D;51290;45.060;38.948;2023-08-20T10:38:49;35.40;20.03
64833;HTU21D;51290;45.060;38.948;2023-08-20T10:41:15;35.41;19.91
64833;HTU21D;51290;45.060;38.948;2023-08-20T10:43:47;35.48;19.84
64833;HTU21D;51290;45.060;38.948;2023-08-20T10:48:48;35.64;19.07
64833;HTU21D;51290;45.060;38.948;2023-08-20T10:51:33;35.66;18.94
64833;HTU21D;51290;45.060;38.948;2023-08-20T10:54:03;35.70;19.06
64833;HTU21D;51290;45.060;38.948;2023-08-20T10:56:48;35.79;18.67
64833;HTU21D;51290;45.060;38.948;2023-08-20T11:01:44;35.82;18.54
64833;HTU21D;51290;45.060;38.948;2023-08-20T11:04:11;35.87;18.24
64833;HTU21D;51290;45.060;38.948;2023-08-20T11:06:38;35.89;17.88
64833;HTU21D;51290;45.060;38.948;2023-08-20T11:09:05;35.90;17.47
64833;HTU21D;51290;45.060;38.948;2023-08-20T11:11:32;35.86;17.08
64833;HTU21D;51290;45.060;38.948;2023-08-20T11:14:18;35.82;17.24
64833;HTU21D;51290;45.060;38.948;2023-08-20T11:16:45;35.82;17.29
64833;HTU21D;51290;45.060;38.948;2023-08-20T11:19:13;35.84;16.95
64833;HTU21D;51290;45.060;38.948;2023-08-20T11:21:40;35.83;17.18
64833;HTU21D;51290;45.060;38.948;2023-08-20T11:24:08;35.84;17.16
64833;HTU21D;51290;45.060;38.948;2023-08-20T11:26:35;35.82;17.12
64833;HTU21D;51290;45.060;38.948;2023-08-20T11:29:09;35.82;17.07
64833;HTU21D;51290;45.060;38.948;2023-08-20T11:31:36;35.79;16.87
64833;HTU21D;51290;45.060;38.948;2023-08-20T11:34:03;35.78;16.78
64833;HTU21D;51290;45.060;38.948;2023-08-20T11:36:29;35.82;16.88
64833;HTU21D;51290;45.060;38.948;2023-08-20T11:38:55;35.86;16.84
64833;HTU21D;51290;45.060;38.948;2023-08-20T11:41:22;35.85;16.79
64833;HTU21D;51290;45.060;38.948;2023-08-20T11:43:49;35.90;16.83
64833;HTU21D;51290;45.060;38.948;2023-08-20T11:46:19;35.92;16.40
64833;HTU21D;51290;45.060;38.948;2023-08-20T11:49:04;35.90;16.19
64833;HTU21D;51290;45.060;38.948;2023-08-20T11:51:39;35.84;16.33
64833;HTU21D;51290;45.060;38.948;2023-08-20T11:54:14;35.80;16.33
64833;HTU21D;51290;45.060;38.948;2023-08-20T11:56:48;35.77;16.32
64833;HTU21D;51290;45.060;38.948;2023-08-20T11:59:16;35.84;16.18
64833;HTU21D;51290;45.060;38.948;2023-08-20T12:01:42;35.87;16.05
64833;HTU21D;51290;45.060;38.948;2023-08-20T12:04:10;35.92;16.18
64833;HTU21D;51290;45.060;38.948;2023-08-20T12:06:37;35.93;16.09
64833;HTU21D;51290;45.060;38.948;2023-08-20T12:09:22;35.99;15.89
64833;HTU21D;51290;45.060;38.948;2023-08-20T12:11:50;36.07;16.13
64833;HTU21D;51290;45.060;38.948;2023-08-20T12:14:19;36.12;16.13
64833;HTU21D;51290;45.060;38.948;2023-08-20T12:16:46;36.16;16.30
64833;HTU21D;51290;45.060;38.948;2023-08-20T12:19:13;36.22;16.40
64833;HTU21D;51290;45.060;38.948;2023-08-20T12:21:40;36.29;16.44
64833;HTU21D;51290;45.060;38.948;2023-08-20T12:24:11;36.36;16.38
64833;HTU21D;51290;45.060;38.948;2023-08-20T12:26:38;36.39;16.32
64833;HTU21D;51290;45.060;38.948;2023-08-20T12:29:05;36.42;16.04
64833;HTU21D;51290;45.060;38.948;2023-08-20T12:31:35;36.36;15.52
64833;HTU21D;51290;45.060;38.948;2023-08-20T12:34:01;36.27;15.43
64833;HTU21D;51290;45.060;38.948;2023-08-20T12:36:28;36.16;15.45
64833;HTU21D;51290;45.060;38.948;2023-08-20T12:38:55;36.08;15.60
64833;HTU21D;51290;45.060;38.948;2023-08-20T12:41:21;36.06;15.55
64833;HTU21D;51290;45.060;38.948;2023-08-20T12:43:48;36.09;15.52
64833;HTU21D;51290;45.060;38.948;2023-08-20T12:46:14;36.10;15.47
64833;HTU21D;51290;45.060;38.948;2023-08-20T12:48:40;36.11;15.32
64833;HTU21D;51290;45.060;38.948;2023-08-20T12:51:06;36.16;15.25
64833;HTU21D;51290;45.060;38.948;2023-08-20T12:53:33;36.19;15.19
64833;HTU21D;51290;45.060;38.948;2023-08-20T12:55:59;36.24;15.10
64833;HTU21D;51290;45.060;38.948;2023-08-20T12:58:25;36.29;15.17
64833;HTU21D;51290;45.060;38.948;2023-08-20T13:00:51;36.33;15.08
64833;HTU21D;51290;45.060;38.948;2023-08-20T13:03:18;36.38;15.26
64833;HTU21D;51290;45.060;38.948;2023-08-20T13:05:44;36.44;15.42
64833;HTU21D;51290;45.060;38.948;2023-08-20T13:08:11;36.48;15.46
64833;HTU21D;51290;45.060;38.948;2023-08-20T13:10:41;36.51;15.19
64833;HTU21D;51290;45.060;38.948;2023-08-20T13:13:10;36.44;15.22
64833;HTU21D;51290;45.060;38.948;2023-08-20T13:15:37;36.43;15.30
64833;HTU21D;51290;45.060;38.948;2023-08-20T13:18:03;36.43;15.22
64833;HTU21D;51290;45.060;38.948;2023-08-20T13:20:29;36.45;15.14
64833;HTU21D;51290;45.060;38.948;2023-08-20T13:22:55;36.48;15.13
64833;HTU21D;51290;45.060;38.948;2023-08-20T13:25:22;36.46;15.04
64833;HTU21D;51290;45.060;38.948;2023-08-20T13:27:48;36.46;15.07
64833;HTU21D;51290;45.060;38.948;2023-08-20T13:30:14;36.47;14.97
64833;HTU21D;51290;45.060;38.948;2023-08-20T13:32:40;36.45;14.93
64833;HTU21D;51290;45.060;38.948;2023-08-20T13:35:06;36.47;14.84
64833;HTU21D;51290;45.060;38.948;2023-08-20T13:37:33;36.47;14.87
64833;HTU21D;51290;45.060;38.948;2023-08-20T13:40:00;36.48;14.86
64833;HTU21D;51290;45.060;38.948;2023-08-20T13:42:27;36.46;14.95
64833;HTU21D;51290;45.060;38.948;2023-08-20T13:44:53;36.47;14.91
64833;HTU21D;51290;45.060;38.948;2023-08-20T13:47:19;36.46;14.90
64833;HTU21D;51290;45.060;38.948;2023-08-20T13:49:45;36.46;14.72
64833;HTU21D;51290;45.060;38.948;2023-08-20T13:52:11;36.39;14.66
64833;HTU21D;51290;45.060;38.948;2023-08-20T13:54:37;36.34;14.62
64833;HTU21D;51290;45.060;38.948;2023-08-20T13:57:04;36.31;14.71
64833;HTU21D;51290;45.060;38.948;2023-08-20T13:59:30;36.32;14.73
64833;HTU21D;51290;45.060;38.948;2023-08-20T14:01:57;36.34;14.78
64833;HTU21D;51290;45.060;38.948;2023-08-20T14:04:23;36.38;14.79
64833;HTU21D;51290;45.060;38.948;2023-08-20T14:06:49;36.41;14.89
64833;HTU21D;51290;45.060;38.948;2023-08-20T14:09:15;36.40;14.85
64833;HTU21D;51290;45.060;38.948;2023-08-20T14:11:43;36.31;14.77
64833;HTU21D;51290;45.060;38.948;2023-08-20T14:14:09;36.25;14.84
64833;HTU21D;51290;45.060;38.948;2023-08-20T14:16:35;36.23;14.87
64833;HTU21D;51290;45.060;38.948;2023-08-20T14:19:01;36.26;15.00
64833;HTU21D;51290;45.060;38.948;2023-08-20T14:21:27;36.30;14.97
64833;HTU21D;51290;45.060;38.948;2023-08-20T14:23:53;36.31;14.92
64833;HTU21D;51290;45.060;38.948;2023-08-20T14:26:19;36.34;14.91
64833;HTU21D;51290;45.060;38.948;2023-08-20T14:28:45;36.34;14.86
64833;HTU21D;51290;45.060;38.948;2023-08-20T14:31:11;36.34;14.84
64833;HTU21D;51290;45.060;38.948;2023-08-20T14:33:37;36.33;14.89
64833;HTU21D;51290;45.060;38.948;2023-08-20T14:36:03;36.33;14.84
64833;HTU21D;51290;45.060;38.948;2023-08-20T14:38:30;36.28;14.86
64833;HTU21D;51290;45.060;38.948;2023-08-20T14:41:03;36.26;14.76
64833;HTU21D;51290;45.060;38.948;2023-08-20T14:43:29;36.23;14.64
64833;HTU21D;51290;45.060;38.948;2023-08-20T14:45:56;36.23;14.68
64833;HTU21D;51290;45.060;38.948;2023-08-20T14:48:22;36.24;14.63
64833;HTU21D;51290;45.060;38.948;2023-08-20T14:50:50;36.22;14.72
64833;HTU21D;51290;45.060;38.948;2023-08-20T14:53:17;36.17;14.78
64833;HTU21D;51290;45.060;38.948;2023-08-20T14:55:44;36.08;14.92
64833;HTU21D;51290;45.060;38.948;2023-08-20T14:58:11;35.99;14.98
64833;HTU21D;51290;45.060;38.948;2023-08-20T15:00:37;35.97;15.14
64833;HTU21D;51290;45.060;38.948;2023-08-20T15:03:03;35.95;15.13
64833;HTU21D;51290;45.060;38.948;2023-08-20T15:05:32;35.89;15.15
64833;HTU21D;51290;45.060;38.948;2023-08-20T15:07:58;35.87;15.34
64833;HTU21D;51290;45.060;38.948;2023-08-20T15:10:24;35.85;15.41
64833;HTU21D;51290;45.060;38.948;2023-08-20T15:12:50;35.83;15.48
64833;HTU21D;51290;45.060;38.948;2023-08-20T15:15:16;35.82;15.53
64833;HTU21D;51290;45.060;38.948;2023-08-20T15:17:42;35.79;15.61
64833;HTU21D;51290;45.060;38.948;2023-08-20T15:20:09;35.78;15.72
64833;HTU21D;51290;45.060;38.948;2023-08-20T15:22:38;35.81;15.82
64833;HTU21D;51290;45.060;38.948;2023-08-20T15:25:05;35.81;15.86
64833;HTU21D;51290;45.060;38.948;2023-08-20T15:27:36;35.81;15.90
64833;HTU21D;51290;45.060;38.948;2023-08-20T15:30:06;35.75;16.01
64833;HTU21D;51290;45.060;38.948;2023-08-20T15:32:39;35.74;16.14
64833;HTU21D;51290;45.060;38.948;2023-08-20T15:35:07;35.73;16.12